createdAt,value
2023-03-26T00:00:12.292Z,237
2023-03-26T00:00:42.764Z,243
2023-03-26T00:01:13.629Z,232
2023-03-26T00:01:44.332Z,249
2023-03-26T00:02:15.556Z,237
2023-03-26T00:02:46.561Z,243
2023-03-26T00:03:17.557Z,259
2023-03-26T00:03:48.591Z,236
2023-03-26T00:04:20.341Z,239
2023-03-26T00:04:50.672Z,251
2023-03-26T00:05:22.312Z,250
2023-03-26T00:05:52.435Z,249
2023-03-26T00:06:23.361Z,254
2023-03-26T00:06:54.648Z,241
2023-03-26T00:07:25.626Z,252
2023-03-26T00:07:56.789Z,240
2023-03-26T00:08:27.757Z,245
2023-03-26T00:08:58.742Z,256
2023-03-26T00:09:30.061Z,246
2023-03-26T00:10:01.088Z,269
2023-03-26T00:10:31.662Z,274
2023-03-26T00:11:02.688Z,244
2023-03-26T00:11:33.745Z,251
2023-03-26T00:12:04.543Z,274
2023-03-26T00:12:35.401Z,260
2023-03-26T00:13:06.599Z,247
2023-03-26T00:13:37.504Z,247
2023-03-26T00:14:08.641Z,258
2023-03-26T00:14:39.740Z,255
2023-03-26T00:15:11.108Z,255
2023-03-26T00:15:41.569Z,237
2023-03-26T00:16:12.536Z,260
2023-03-26T00:16:43.790Z,257
2023-03-26T00:17:14.619Z,232
2023-03-26T00:17:45.754Z,246
2023-03-26T00:18:16.239Z,255
2023-03-26T00:18:47.681Z,245
2023-03-26T00:19:18.688Z,242
2023-03-26T00:19:49.929Z,243
2023-03-26T00:20:21.250Z,252
2023-03-26T00:20:51.697Z,240
2023-03-26T00:21:22.999Z,241
2023-03-26T00:21:53.756Z,233
2023-03-26T00:22:24.461Z,245
2023-03-26T00:22:55.720Z,249
2023-03-26T00:23:26.679Z,247
2023-03-26T00:23:57.584Z,252
2023-03-26T00:24:28.618Z,255
2023-03-26T00:24:59.617Z,247
2023-03-26T00:25:30.898Z,247
2023-03-26T00:26:03.663Z,260
2023-03-26T00:26:32.773Z,256
2023-03-26T00:27:06.097Z,263
2023-03-26T00:27:34.584Z,238
2023-03-26T00:28:05.922Z,265
2023-03-26T00:28:36.669Z,254
2023-03-26T00:29:08.216Z,256
2023-03-26T00:29:38.704Z,255
2023-03-26T00:30:10.491Z,256
2023-03-26T00:30:40.418Z,246
2023-03-26T00:31:11.690Z,257
2023-03-26T00:31:42.850Z,245
2023-03-26T00:32:13.642Z,239
2023-03-26T00:32:44.503Z,243
2023-03-26T00:33:15.791Z,267
2023-03-26T00:33:46.623Z,246
2023-03-26T00:34:17.749Z,260
2023-03-26T00:34:48.531Z,247
2023-03-26T00:35:19.885Z,241
2023-03-26T00:35:50.460Z,250
2023-03-26T00:36:22.047Z,229
2023-03-26T00:36:52.506Z,232
2023-03-26T00:37:23.662Z,249
2023-03-26T00:37:54.593Z,257
2023-03-26T00:38:25.764Z,255
2023-03-26T00:38:56.330Z,237
2023-03-26T00:39:27.513Z,243
2023-03-26T00:40:00.818Z,255
2023-03-26T00:40:30.320Z,243
2023-03-26T00:41:00.732Z,237
2023-03-26T00:41:31.644Z,242
2023-03-26T00:42:02.833Z,244
2023-03-26T00:42:33.644Z,264
2023-03-26T00:43:04.545Z,230
2023-03-26T00:43:35.786Z,223
2023-03-26T00:44:06.709Z,224
2023-03-26T00:44:37.474Z,237
2023-03-26T00:45:09.249Z,235
2023-03-26T00:45:39.710Z,238
2023-03-26T00:46:11.211Z,229
2023-03-26T00:46:41.767Z,216
2023-03-26T00:47:12.766Z,224
2023-03-26T00:47:43.451Z,242
2023-03-26T00:48:14.786Z,234
2023-03-26T00:48:46.230Z,230
2023-03-26T00:49:16.688Z,242
2023-03-26T00:49:47.826Z,237
2023-03-26T00:50:19.164Z,219
2023-03-26T00:50:49.852Z,238
2023-03-26T00:51:20.627Z,229
2023-03-26T00:51:51.757Z,228
2023-03-26T00:52:22.428Z,236
2023-03-26T00:52:53.874Z,242
2023-03-26T00:53:24.628Z,243
2023-03-26T00:53:55.679Z,234
2023-03-26T00:54:27.060Z,245
2023-03-26T00:54:57.735Z,246
2023-03-26T00:55:29.348Z,246
2023-03-26T00:55:59.715Z,240
2023-03-26T00:56:30.677Z,241
2023-03-26T00:57:01.874Z,236
2023-03-26T00:57:36.238Z,240
2023-03-26T00:58:03.445Z,243
2023-03-26T00:58:35.889Z,243
2023-03-26T00:59:05.822Z,251
2023-03-26T00:59:38.554Z,247
2023-03-26T01:00:08.109Z,249
2023-03-26T01:00:38.748Z,229
2023-03-26T01:01:09.719Z,247
2023-03-26T01:01:40.795Z,244
2023-03-26T01:02:11.589Z,238
2023-03-26T01:02:42.874Z,251
2023-03-26T01:03:21.896Z,237
2023-03-26T01:03:53.028Z,243
2023-03-26T01:04:15.818Z,241
2023-03-26T01:04:47.129Z,237
2023-03-26T01:05:18.176Z,226
2023-03-26T01:05:48.732Z,232
2023-03-26T01:06:20.187Z,226
2023-03-26T01:06:50.888Z,241
2023-03-26T01:07:21.797Z,225
2023-03-26T01:07:52.866Z,239
2023-03-26T01:08:23.496Z,233
2023-03-26T01:08:54.701Z,243
2023-03-26T01:09:25.738Z,244
2023-03-26T01:09:56.752Z,244
2023-03-26T01:10:28.031Z,217
2023-03-26T01:10:58.708Z,239
2023-03-26T01:11:29.706Z,232
2023-03-26T01:12:01.199Z,237
2023-03-26T01:12:32.181Z,255
2023-03-26T01:13:02.701Z,248
2023-03-26T01:13:33.716Z,253
2023-03-26T01:14:04.548Z,234
2023-03-26T01:14:35.716Z,262
2023-03-26T01:15:07.300Z,246
2023-03-26T01:15:37.731Z,243
2023-03-26T01:16:08.655Z,259
2023-03-26T01:16:39.706Z,251
2023-03-26T01:17:11.031Z,254
2023-03-26T01:17:41.937Z,230
2023-03-26T01:18:13.165Z,259
2023-03-26T01:18:43.967Z,249
2023-03-26T01:19:14.897Z,249
2023-03-26T01:19:46.050Z,252
2023-03-26T01:20:17.203Z,269
2023-03-26T01:20:48.124Z,247
2023-03-26T01:21:18.737Z,275
2023-03-26T01:21:49.864Z,248
2023-03-26T01:22:20.799Z,245
2023-03-26T01:22:51.764Z,246
2023-03-26T01:23:22.970Z,261
2023-03-26T01:23:53.752Z,259
2023-03-26T01:24:24.771Z,250
2023-03-26T01:24:55.862Z,250
2023-03-26T01:25:27.012Z,249
2023-03-26T01:25:57.747Z,239
2023-03-26T01:26:28.820Z,243
2023-03-26T01:26:59.842Z,241
2023-03-26T01:27:30.724Z,235
2023-03-26T01:28:01.783Z,248
2023-03-26T01:28:32.730Z,233
2023-03-26T01:29:05.648Z,234
2023-03-26T01:29:35.054Z,221
2023-03-26T01:30:08.188Z,206
2023-03-26T01:30:37.050Z,227
2023-03-26T01:31:07.746Z,210
2023-03-26T01:31:38.822Z,228
2023-03-26T01:32:09.634Z,240
2023-03-26T01:32:41.029Z,237
2023-03-26T01:33:11.688Z,203
2023-03-26T01:33:43.034Z,217
2023-03-26T01:34:13.865Z,226
2023-03-26T01:34:44.893Z,238
2023-03-26T01:35:16.106Z,247
2023-03-26T01:35:47.111Z,244
2023-03-26T01:36:17.918Z,235
2023-03-26T01:36:49.183Z,240
2023-03-26T01:37:19.924Z,243
2023-03-26T01:37:50.577Z,240
2023-03-26T01:38:21.616Z,240
2023-03-26T01:38:53.004Z,245
2023-03-26T01:39:23.791Z,231
2023-03-26T01:39:54.930Z,223
2023-03-26T01:40:26.706Z,226
2023-03-26T01:40:56.804Z,216
2023-03-26T01:41:27.788Z,219
2023-03-26T01:41:58.890Z,223
2023-03-26T01:42:29.904Z,233
2023-03-26T01:43:00.977Z,235
2023-03-26T01:43:31.875Z,233
2023-03-26T01:44:02.911Z,226
2023-03-26T01:44:33.987Z,212
2023-03-26T01:45:05.338Z,223
2023-03-26T01:45:35.905Z,232
2023-03-26T01:46:07.068Z,233
2023-03-26T01:46:38.480Z,258
2023-03-26T01:47:08.948Z,246
2023-03-26T01:47:39.721Z,251
2023-03-26T01:48:10.682Z,255
2023-03-26T01:48:41.629Z,259
2023-03-26T01:49:13.273Z,265
2023-03-26T01:49:43.629Z,233
2023-03-26T01:50:15.864Z,269
2023-03-26T01:50:45.931Z,261
2023-03-26T01:51:17.092Z,258
2023-03-26T01:51:47.944Z,250
2023-03-26T01:52:18.957Z,246
2023-03-26T01:52:49.780Z,259
2023-03-26T01:53:20.832Z,226
2023-03-26T01:53:51.851Z,274
2023-03-26T01:54:23.267Z,284
2023-03-26T01:54:54.102Z,248
2023-03-26T01:55:25.143Z,263
2023-03-26T01:55:56.014Z,288
2023-03-26T01:56:26.687Z,288
2023-03-26T01:56:57.933Z,279
2023-03-26T01:57:28.865Z,264
2023-03-26T01:57:59.988Z,253
2023-03-26T01:58:31.072Z,243
2023-03-26T01:59:01.751Z,246
2023-03-26T01:59:33.093Z,238
2023-03-26T02:00:04.353Z,240
2023-03-26T02:00:37.345Z,250
2023-03-26T02:01:05.751Z,239
2023-03-26T02:01:38.849Z,269
2023-03-26T02:02:08.492Z,247
2023-03-26T02:02:57.788Z,247
2023-03-26T02:03:40.954Z,239
2023-03-26T02:04:11.827Z,253
2023-03-26T02:04:43.021Z,238
2023-03-26T02:05:14.330Z,244
2023-03-26T02:05:45.060Z,259
2023-03-26T02:06:16.042Z,251
2023-03-26T02:06:47.065Z,241
2023-03-26T02:07:18.470Z,234
2023-03-26T02:07:48.951Z,252
2023-03-26T02:08:20.168Z,227
2023-03-26T02:08:51.026Z,286
2023-03-26T02:09:21.831Z,262
2023-03-26T02:09:52.735Z,251
2023-03-26T02:10:24.063Z,236
2023-03-26T02:10:54.712Z,253
2023-03-26T02:11:56.928Z,239
2023-03-26T02:12:28.203Z,253
2023-03-26T02:12:59.024Z,240
2023-03-26T02:13:30.092Z,252
2023-03-26T02:14:01.023Z,250
2023-03-26T02:14:31.814Z,247
2023-03-26T02:15:03.516Z,248
2023-03-26T02:15:34.910Z,250
2023-03-26T02:16:04.950Z,246
2023-03-26T02:16:35.772Z,243
2023-03-26T02:17:07.019Z,229
2023-03-26T02:17:38.272Z,233
2023-03-26T02:18:08.808Z,252
2023-03-26T02:18:39.739Z,251
2023-03-26T02:19:10.737Z,237
2023-03-26T02:19:41.778Z,257
2023-03-26T02:20:13.288Z,252
2023-03-26T02:20:43.761Z,232
2023-03-26T02:21:14.830Z,242
2023-03-26T02:21:46.076Z,236
2023-03-26T02:22:17.178Z,240
2023-03-26T02:22:47.710Z,251
2023-03-26T02:23:19.005Z,239
2023-03-26T02:23:50.008Z,243
2023-03-26T02:24:20.783Z,246
2023-03-26T02:24:52.142Z,258
2023-03-26T02:25:23.424Z,245
2023-03-26T02:25:54.041Z,253
2023-03-26T02:26:25.186Z,261
2023-03-26T02:26:55.826Z,257
2023-03-26T02:27:26.881Z,239
2023-03-26T02:27:57.920Z,240
2023-03-26T02:28:28.892Z,231
2023-03-26T02:28:59.900Z,239
2023-03-26T02:29:30.776Z,246
2023-03-26T02:30:03.026Z,240
2023-03-26T02:30:32.738Z,233
2023-03-26T02:31:04.080Z,241
2023-03-26T02:31:35.137Z,248
2023-03-26T02:32:06.785Z,243
2023-03-26T02:32:37.026Z,234
2023-03-26T02:33:09.960Z,233
2023-03-26T02:33:39.045Z,237
2023-03-26T02:34:10.424Z,248
2023-03-26T02:34:40.991Z,250
2023-03-26T02:35:12.222Z,243
2023-03-26T02:35:43.168Z,245
2023-03-26T02:36:14.040Z,235
2023-03-26T02:36:45.669Z,235
2023-03-26T02:37:16.040Z,244
2023-03-26T02:37:46.930Z,255
2023-03-26T02:38:18.041Z,259
2023-03-26T02:38:49.062Z,226
2023-03-26T02:39:19.980Z,224
2023-03-26T02:39:51.023Z,240
2023-03-26T02:40:22.418Z,268
2023-03-26T02:40:53.063Z,263
2023-03-26T02:41:24.265Z,259
2023-03-26T02:41:55.207Z,232
2023-03-26T02:42:26.381Z,241
2023-03-26T02:42:56.791Z,251
2023-03-26T02:43:27.746Z,252
2023-03-26T02:43:58.824Z,233
2023-03-26T02:44:30.419Z,233
2023-03-26T02:45:01.906Z,223
2023-03-26T02:45:32.095Z,221
2023-03-26T02:46:03.203Z,212
2023-03-26T02:46:33.920Z,244
2023-03-26T02:47:05.007Z,243
2023-03-26T02:47:36.378Z,223
2023-03-26T02:48:07.028Z,231
2023-03-26T02:48:38.225Z,240
2023-03-26T02:49:08.981Z,257
2023-03-26T02:49:40.022Z,249
2023-03-26T02:50:12.200Z,231
2023-03-26T02:50:42.209Z,243
2023-03-26T02:51:13.207Z,249
2023-03-26T02:51:43.802Z,215
2023-03-26T02:52:14.787Z,222
2023-03-26T02:52:46.623Z,243
2023-03-26T02:53:17.057Z,255
2023-03-26T02:53:48.102Z,240
2023-03-26T02:54:19.229Z,267
2023-03-26T02:54:50.038Z,225
2023-03-26T02:55:21.264Z,237
2023-03-26T02:55:52.082Z,243
2023-03-26T02:56:23.052Z,240
2023-03-26T02:56:53.932Z,235
2023-03-26T02:57:25.242Z,232
2023-03-26T02:57:56.021Z,249
2023-03-26T02:58:27.266Z,244
2023-03-26T02:58:58.237Z,230
2023-03-26T02:59:29.010Z,244
2023-03-26T03:00:00.026Z,243
2023-03-26T03:00:31.929Z,252
2023-03-26T03:01:02.209Z,247
2023-03-26T03:01:33.203Z,225
2023-03-26T03:02:04.316Z,231
2023-03-26T03:02:35.439Z,238
2023-03-26T03:03:06.074Z,258
2023-03-26T03:03:38.839Z,251
2023-03-26T03:04:08.079Z,256
2023-03-26T03:04:40.398Z,247
2023-03-26T03:05:10.400Z,242
2023-03-26T03:05:40.952Z,241
2023-03-26T03:06:11.924Z,245
2023-03-26T03:06:43.207Z,242
2023-03-26T03:07:13.958Z,295
2023-03-26T03:07:45.706Z,295
2023-03-26T03:08:16.031Z,295
2023-03-26T03:08:46.881Z,257
2023-03-26T03:09:17.964Z,252
2023-03-26T03:09:49.255Z,263
2023-03-26T03:10:20.540Z,252
2023-03-26T03:10:50.950Z,252
2023-03-26T03:11:21.942Z,246
2023-03-26T03:11:53.245Z,246
2023-03-26T03:12:23.988Z,246
2023-03-26T03:12:54.856Z,243
2023-03-26T03:13:25.988Z,249
2023-03-26T03:13:57.260Z,257
2023-03-26T03:14:28.031Z,243
2023-03-26T03:14:59.062Z,238
2023-03-26T03:15:30.594Z,240
2023-03-26T03:16:01.331Z,241
2023-03-26T03:16:32.296Z,203
2023-03-26T03:17:02.971Z,248
2023-03-26T03:17:34.043Z,233
2023-03-26T03:18:05.076Z,239
2023-03-26T03:18:35.951Z,244
2023-03-26T03:19:07.182Z,229
2023-03-26T03:19:37.888Z,250
2023-03-26T03:20:09.539Z,219
2023-03-26T03:20:39.870Z,250
2023-03-26T03:21:11.324Z,249
2023-03-26T03:21:42.001Z,248
2023-03-26T03:22:13.253Z,251
2023-03-26T03:22:44.186Z,235
2023-03-26T03:23:15.104Z,245
2023-03-26T03:23:46.381Z,259
2023-03-26T03:24:17.509Z,251
2023-03-26T03:24:47.855Z,248
2023-03-26T03:25:19.799Z,252
2023-03-26T03:25:50.000Z,251
2023-03-26T03:26:21.045Z,249
2023-03-26T03:26:51.963Z,246
2023-03-26T03:27:22.991Z,254
2023-03-26T03:27:54.065Z,252
2023-03-26T03:28:24.924Z,242
2023-03-26T03:28:55.897Z,246
2023-03-26T03:29:27.163Z,243
2023-03-26T03:29:58.130Z,246
2023-03-26T03:30:29.826Z,269
2023-03-26T03:31:00.252Z,290
2023-03-26T03:31:31.217Z,291
2023-03-26T03:32:02.044Z,291
2023-03-26T03:32:33.103Z,291
2023-03-26T03:33:04.436Z,292
2023-03-26T03:33:34.990Z,292
2023-03-26T03:34:06.025Z,294
2023-03-26T03:34:37.337Z,301
2023-03-26T03:35:09.849Z,302
2023-03-26T03:35:39.094Z,305
2023-03-26T03:36:20.258Z,310
2023-03-26T03:36:41.060Z,312
2023-03-26T03:37:16.505Z,315
2023-03-26T03:37:42.963Z,317
2023-03-26T03:38:14.486Z,319
2023-03-26T03:38:45.245Z,320
2023-03-26T03:39:16.066Z,320
2023-03-26T03:39:47.061Z,320
2023-03-26T03:40:18.578Z,319
2023-03-26T03:40:49.138Z,320
2023-03-26T03:41:20.055Z,321
2023-03-26T03:41:50.988Z,321
2023-03-26T03:42:22.341Z,337
2023-03-26T03:42:53.222Z,344
2023-03-26T03:43:24.052Z,345
2023-03-26T03:43:55.321Z,345
2023-03-26T03:44:26.601Z,345
2023-03-26T03:44:56.972Z,343
2023-03-26T03:45:29.236Z,343
2023-03-26T03:45:59.124Z,332
2023-03-26T03:46:30.131Z,352
2023-03-26T03:47:01.410Z,258
2023-03-26T03:47:32.031Z,258
2023-03-26T03:48:03.139Z,230
2023-03-26T03:48:34.118Z,231
2023-03-26T03:49:05.062Z,231
2023-03-26T03:49:35.993Z,231
2023-03-26T03:50:07.220Z,240
2023-03-26T03:50:38.918Z,242
2023-03-26T03:51:09.489Z,243
2023-03-26T03:51:40.283Z,271
2023-03-26T03:52:11.098Z,278
2023-03-26T03:52:42.419Z,293
2023-03-26T03:53:13.375Z,299
2023-03-26T03:53:44.117Z,303
2023-03-26T03:54:15.063Z,303
2023-03-26T03:54:46.490Z,303
2023-03-26T03:55:17.617Z,197
2023-03-26T03:55:48.280Z,198
2023-03-26T03:56:19.487Z,222
2023-03-26T03:56:50.127Z,171
2023-03-26T03:57:21.332Z,170
2023-03-26T03:57:52.363Z,168
2023-03-26T03:58:23.405Z,167
2023-03-26T03:58:54.411Z,167
2023-03-26T03:59:25.491Z,188
2023-03-26T03:59:56.170Z,205
2023-03-26T04:00:27.906Z,203
2023-03-26T04:00:58.516Z,203
2023-03-26T04:01:29.336Z,204
2023-03-26T04:02:00.297Z,202
2023-03-26T04:02:31.457Z,203
2023-03-26T04:03:02.528Z,201
2023-03-26T04:03:34.551Z,186
2023-03-26T04:04:04.500Z,176
2023-03-26T04:04:35.628Z,176
2023-03-26T04:05:06.653Z,176
2023-03-26T04:05:37.205Z,175
2023-03-26T04:06:08.398Z,171
2023-03-26T04:06:40.038Z,171
2023-03-26T04:07:10.491Z,171
2023-03-26T04:07:43.462Z,170
2023-03-26T04:08:12.330Z,170
2023-03-26T04:08:43.391Z,170
2023-03-26T04:09:14.314Z,170
2023-03-26T04:09:45.369Z,170
2023-03-26T04:10:16.886Z,170
2023-03-26T04:10:47.346Z,170
2023-03-26T04:11:18.669Z,170
2023-03-26T04:11:49.370Z,170
2023-03-26T04:12:20.410Z,170
2023-03-26T04:12:51.177Z,170
2023-03-26T04:13:22.287Z,170
2023-03-26T04:13:53.295Z,170
2023-03-26T04:14:24.374Z,170
2023-03-26T04:14:55.427Z,168
2023-03-26T04:15:27.030Z,169
2023-03-26T04:15:57.785Z,168
2023-03-26T04:16:28.404Z,167
2023-03-26T04:16:59.528Z,167
2023-03-26T04:17:30.176Z,168
2023-03-26T04:18:01.459Z,164
2023-03-26T04:18:32.276Z,161
2023-03-26T04:19:03.809Z,127
2023-03-26T04:19:34.329Z,127
2023-03-26T04:20:05.806Z,127
2023-03-26T04:20:36.257Z,127
2023-03-26T04:21:07.631Z,127
2023-03-26T04:21:38.222Z,127
2023-03-26T04:22:09.723Z,127
2023-03-26T04:22:40.124Z,127
2023-03-26T04:23:11.220Z,127
2023-03-26T04:23:42.632Z,127
2023-03-26T04:24:13.304Z,127
2023-03-26T04:24:44.415Z,127
2023-03-26T04:25:15.842Z,127
2023-03-26T04:25:46.382Z,127
2023-03-26T04:26:17.133Z,127
2023-03-26T04:26:48.374Z,127
2023-03-26T04:27:19.155Z,127
2023-03-26T04:27:50.240Z,127
2023-03-26T04:28:21.341Z,127
2023-03-26T04:28:52.598Z,127
2023-03-26T04:29:23.196Z,127
2023-03-26T04:29:54.571Z,127
2023-03-26T04:30:26.445Z,132
2023-03-26T04:30:56.688Z,153
2023-03-26T04:31:27.432Z,155
2023-03-26T04:31:58.517Z,178
2023-03-26T04:32:29.582Z,230
2023-03-26T04:33:00.290Z,228
2023-03-26T04:33:31.310Z,239
2023-03-26T04:34:02.571Z,228
2023-03-26T04:34:33.751Z,222
2023-03-26T04:35:04.396Z,228
2023-03-26T04:35:35.208Z,233
2023-03-26T04:36:06.676Z,243
2023-03-26T04:36:37.493Z,227
2023-03-26T04:37:08.550Z,233
2023-03-26T04:37:39.661Z,240
2023-03-26T04:38:12.049Z,246
2023-03-26T04:38:41.690Z,257
2023-03-26T04:39:14.918Z,236
2023-03-26T04:39:43.516Z,249
2023-03-26T04:40:16.168Z,231
2023-03-26T04:40:45.459Z,222
2023-03-26T04:41:16.414Z,231
2023-03-26T04:41:47.622Z,233
2023-03-26T04:42:18.235Z,236
2023-03-26T04:42:49.127Z,222
2023-03-26T04:43:20.429Z,238
2023-03-26T04:43:51.241Z,234
2023-03-26T04:44:22.518Z,239
2023-03-26T04:44:53.215Z,221
2023-03-26T04:45:24.850Z,187
2023-03-26T04:45:55.595Z,226
2023-03-26T04:46:26.503Z,226
2023-03-26T04:46:57.221Z,227
2023-03-26T04:47:28.237Z,167
2023-03-26T04:47:59.276Z,182
2023-03-26T04:48:30.347Z,207
2023-03-26T04:49:01.417Z,190
2023-03-26T04:49:32.418Z,205
2023-03-26T04:50:03.794Z,221
2023-03-26T04:50:34.556Z,246
2023-03-26T04:51:05.209Z,254
2023-03-26T04:51:36.286Z,219
2023-03-26T04:52:07.244Z,254
2023-03-26T04:52:38.313Z,228
2023-03-26T04:53:10.026Z,242
2023-03-26T04:53:41.020Z,228
2023-03-26T04:54:11.306Z,232
2023-03-26T04:54:42.612Z,220
2023-03-26T04:55:13.592Z,262
2023-03-26T04:55:44.426Z,236
2023-03-26T04:56:15.267Z,227
2023-03-26T04:56:46.436Z,238
2023-03-26T04:57:17.314Z,215
2023-03-26T04:57:48.289Z,206
2023-03-26T04:58:19.324Z,207
2023-03-26T04:58:50.465Z,245
2023-03-26T04:59:21.826Z,208
2023-03-26T04:59:52.582Z,193
2023-03-26T05:00:24.148Z,191
2023-03-26T05:00:54.415Z,241
2023-03-26T05:01:25.484Z,233
2023-03-26T05:01:56.370Z,226
2023-03-26T05:02:27.440Z,230
2023-03-26T05:02:58.359Z,228
2023-03-26T05:03:29.185Z,205
2023-03-26T05:04:00.316Z,253
2023-03-26T05:04:31.497Z,257
2023-03-26T05:05:02.465Z,255
2023-03-26T05:05:33.505Z,259
2023-03-26T05:06:04.509Z,254
2023-03-26T05:06:35.615Z,235
2023-03-26T05:07:06.284Z,231
2023-03-26T05:07:37.721Z,237
2023-03-26T05:08:08.473Z,239
2023-03-26T05:08:39.835Z,233
2023-03-26T05:09:10.663Z,231
2023-03-26T05:09:42.762Z,234
2023-03-26T05:10:13.094Z,241
2023-03-26T05:10:45.128Z,203
2023-03-26T05:11:14.522Z,247
2023-03-26T05:11:45.718Z,205
2023-03-26T05:12:16.580Z,232
2023-03-26T05:12:47.305Z,226
2023-03-26T05:13:18.509Z,239
2023-03-26T05:13:49.674Z,258
2023-03-26T05:14:20.641Z,235
2023-03-26T05:14:51.686Z,194
2023-03-26T05:15:23.279Z,223
2023-03-26T05:15:53.235Z,235
2023-03-26T05:16:24.265Z,248
2023-03-26T05:16:55.453Z,243
2023-03-26T05:17:26.557Z,228
2023-03-26T05:17:57.551Z,237
2023-03-26T05:18:28.524Z,242
2023-03-26T05:18:59.750Z,201
2023-03-26T05:19:30.523Z,214
2023-03-26T05:20:01.655Z,212
2023-03-26T05:20:32.460Z,227
2023-03-26T05:21:03.289Z,207
2023-03-26T05:21:34.693Z,204
2023-03-26T05:22:05.348Z,185
2023-03-26T05:22:38.093Z,237
2023-03-26T05:23:07.471Z,231
2023-03-26T05:23:38.561Z,233
2023-03-26T05:24:09.782Z,243
2023-03-26T05:24:40.456Z,246
2023-03-26T05:25:11.903Z,206
2023-03-26T05:25:42.745Z,229
2023-03-26T05:26:13.698Z,205
2023-03-26T05:26:44.656Z,182
2023-03-26T05:27:15.400Z,209
2023-03-26T05:27:46.422Z,195
2023-03-26T05:28:17.551Z,212
2023-03-26T05:28:48.603Z,222
2023-03-26T05:29:19.776Z,228
2023-03-26T05:29:50.416Z,235
2023-03-26T05:30:21.981Z,231
2023-03-26T05:30:52.827Z,233
2023-03-26T05:31:23.582Z,230
2023-03-26T05:31:54.633Z,231
2023-03-26T05:32:25.651Z,243
2023-03-26T05:32:56.700Z,217
2023-03-26T05:33:27.613Z,242
2023-03-26T05:33:58.742Z,195
2023-03-26T05:34:29.926Z,199
2023-03-26T05:35:00.626Z,227
2023-03-26T05:35:31.754Z,223
2023-03-26T05:36:02.773Z,217
2023-03-26T05:36:33.736Z,179
2023-03-26T05:37:04.542Z,216
2023-03-26T05:37:35.467Z,185
2023-03-26T05:38:06.655Z,198
2023-03-26T05:38:37.827Z,176
2023-03-26T05:39:08.996Z,190
2023-03-26T05:39:39.428Z,222
2023-03-26T05:40:11.245Z,209
2023-03-26T05:40:41.573Z,177
2023-03-26T05:41:16.918Z,148
2023-03-26T05:41:43.642Z,167
2023-03-26T05:42:15.699Z,230
2023-03-26T05:42:45.734Z,193
2023-03-26T05:43:16.644Z,157
2023-03-26T05:43:48.042Z,203
2023-03-26T05:44:18.630Z,201
2023-03-26T05:44:49.685Z,197
2023-03-26T05:45:21.251Z,129
2023-03-26T05:45:51.721Z,121
2023-03-26T05:46:22.515Z,123
2023-03-26T05:46:53.749Z,119
2023-03-26T05:47:24.523Z,120
2023-03-26T05:47:55.558Z,111
2023-03-26T05:48:26.705Z,145
2023-03-26T05:48:58.302Z,146
2023-03-26T05:49:28.724Z,152
2023-03-26T05:49:59.800Z,150
2023-03-26T05:50:31.055Z,242
2023-03-26T05:51:01.721Z,242
2023-03-26T05:51:33.061Z,231
2023-03-26T05:52:03.475Z,227
2023-03-26T05:52:35.295Z,222
2023-03-26T05:53:05.476Z,223
2023-03-26T05:53:36.594Z,223
2023-03-26T05:54:07.877Z,227
2023-03-26T05:54:38.783Z,227
2023-03-26T05:55:09.966Z,229
2023-03-26T05:55:41.026Z,229
2023-03-26T05:56:11.850Z,229
2023-03-26T05:56:43.040Z,243
2023-03-26T05:57:13.882Z,294
2023-03-26T05:57:44.694Z,294
2023-03-26T05:58:15.770Z,280
2023-03-26T05:58:46.513Z,290
2023-03-26T05:59:17.842Z,307
2023-03-26T05:59:48.835Z,278
2023-03-26T06:00:20.687Z,257
2023-03-26T06:00:50.535Z,196
2023-03-26T06:01:21.732Z,188
2023-03-26T06:01:52.808Z,236
2023-03-26T06:02:23.847Z,191
2023-03-26T06:02:56.637Z,178
2023-03-26T06:03:26.017Z,172
2023-03-26T06:03:57.306Z,190
2023-03-26T06:04:27.569Z,205
2023-03-26T06:04:58.518Z,207
2023-03-26T06:05:29.800Z,198
2023-03-26T06:06:00.489Z,198
2023-03-26T06:06:33.189Z,184
2023-03-26T06:07:02.772Z,193
2023-03-26T06:07:33.901Z,197
2023-03-26T06:08:04.543Z,224
2023-03-26T06:08:35.864Z,218
2023-03-26T06:09:07.293Z,203
2023-03-26T06:09:37.712Z,187
2023-03-26T06:10:08.680Z,200
2023-03-26T06:10:39.825Z,147
2023-03-26T06:11:10.794Z,137
2023-03-26T06:11:41.740Z,197
2023-03-26T06:12:12.861Z,185
2023-03-26T06:12:45.632Z,233
2023-03-26T06:13:14.779Z,228
2023-03-26T06:13:47.944Z,232
2023-03-26T06:14:17.071Z,218
2023-03-26T06:14:47.496Z,214
2023-03-26T06:15:19.559Z,211
2023-03-26T06:15:49.618Z,200
2023-03-26T06:16:27.242Z,173
2023-03-26T06:16:51.765Z,214
2023-03-26T06:17:22.843Z,175
2023-03-26T06:17:53.711Z,194
2023-03-26T06:18:24.630Z,176
2023-03-26T06:18:56.342Z,203
2023-03-26T06:19:27.147Z,194
2023-03-26T06:19:57.734Z,173
2023-03-26T06:20:29.392Z,222
2023-03-26T06:20:59.559Z,198
2023-03-26T06:21:30.661Z,179
2023-03-26T06:22:01.732Z,186
2023-03-26T06:22:32.893Z,234
2023-03-26T06:23:03.914Z,219
2023-03-26T06:23:35.396Z,196
2023-03-26T06:24:06.122Z,209
2023-03-26T06:24:36.961Z,208
2023-03-26T06:25:07.812Z,191
2023-03-26T06:25:38.562Z,217
2023-03-26T06:26:09.577Z,226
2023-03-26T06:26:40.507Z,190
2023-03-26T06:27:11.887Z,222
2023-03-26T06:27:42.902Z,215
2023-03-26T06:28:13.957Z,215
2023-03-26T06:28:44.605Z,214
2023-03-26T06:29:16.053Z,223
2023-03-26T06:29:46.619Z,215
2023-03-26T06:30:18.537Z,221
2023-03-26T06:30:48.779Z,220
2023-03-26T06:31:19.821Z,231
2023-03-26T06:31:50.572Z,242
2023-03-26T06:32:22.000Z,249
2023-03-26T06:32:52.942Z,231
2023-03-26T06:33:24.671Z,245
2023-03-26T06:33:54.882Z,241
2023-03-26T06:34:25.550Z,234
2023-03-26T06:34:56.856Z,235
2023-03-26T06:35:28.480Z,240
2023-03-26T06:35:58.650Z,235
2023-03-26T06:36:30.048Z,236
2023-03-26T06:37:00.854Z,250
2023-03-26T06:37:31.829Z,253
2023-03-26T06:38:03.004Z,247
2023-03-26T06:38:33.749Z,232
2023-03-26T06:39:07.537Z,229
2023-03-26T06:39:35.812Z,234
2023-03-26T06:40:07.356Z,248
2023-03-26T06:40:37.944Z,235
2023-03-26T06:41:08.623Z,230
2023-03-26T06:41:39.664Z,234
2023-03-26T06:42:11.156Z,242
2023-03-26T06:43:09.271Z,222
2023-03-26T06:43:12.630Z,239
2023-03-26T06:43:43.685Z,227
2023-03-26T06:44:16.506Z,238
2023-03-26T06:44:45.860Z,240
2023-03-26T06:45:18.946Z,234
2023-03-26T06:45:48.022Z,222
2023-03-26T06:46:19.808Z,179
2023-03-26T06:46:50.049Z,214
2023-03-26T06:47:21.423Z,210
2023-03-26T06:47:52.025Z,211
2023-03-26T06:48:22.792Z,210
2023-03-26T06:48:54.049Z,214
2023-03-26T06:49:25.214Z,214
2023-03-26T06:49:55.987Z,214
2023-03-26T06:50:27.014Z,215
2023-03-26T06:50:57.997Z,215
2023-03-26T06:51:28.940Z,215
2023-03-26T06:51:59.580Z,215
2023-03-26T06:52:30.622Z,215
2023-03-26T06:53:01.665Z,215
2023-03-26T06:53:33.005Z,215
2023-03-26T06:54:04.218Z,214
2023-03-26T06:54:34.803Z,215
2023-03-26T06:55:05.939Z,215
2023-03-26T06:55:36.981Z,215
2023-03-26T06:56:09.253Z,215
2023-03-26T06:56:39.777Z,215
2023-03-26T06:57:11.336Z,215
2023-03-26T06:57:40.989Z,214
2023-03-26T06:58:12.231Z,214
2023-03-26T06:58:43.305Z,214
2023-03-26T06:59:14.385Z,213
2023-03-26T06:59:45.392Z,213
2023-03-26T07:00:18.456Z,211
2023-03-26T07:00:47.265Z,211
2023-03-26T07:01:18.326Z,212
2023-03-26T07:01:48.823Z,212
2023-03-26T07:02:19.997Z,212
2023-03-26T07:02:52.314Z,212
2023-03-26T07:03:22.505Z,212
2023-03-26T07:03:53.512Z,213
2023-03-26T07:04:24.154Z,227
2023-03-26T07:04:55.539Z,228
2023-03-26T07:05:27.644Z,228
2023-03-26T07:05:57.948Z,229
2023-03-26T07:06:28.431Z,229
2023-03-26T07:06:59.322Z,230
2023-03-26T07:07:30.451Z,230
2023-03-26T07:08:01.500Z,230